createdAt,value
2022-07-25T00:00:02.524Z,21.50
2022-07-25T00:02:30.781Z,21.40
2022-07-25T00:04:59.257Z,21.30
2022-07-25T00:07:29.397Z,21.30
2022-07-25T00:09:58.145Z,21.20
2022-07-25T00:12:26.793Z,21.10
2022-07-25T00:14:55.138Z,21.00
2022-07-25T00:17:23.475Z,21.00
2022-07-25T00:19:51.942Z,20.90
2022-07-25T00:22:20.212Z,20.90
2022-07-25T00:24:49.854Z,20.80
2022-07-25T00:27:18.111Z,20.80
2022-07-25T00:29:46.989Z,20.80
2022-07-25T00:32:15.434Z,20.80
2022-07-25T00:34:43.752Z,20.70
2022-07-25T00:37:11.979Z,20.60
2022-07-25T00:39:40.515Z,20.60
2022-07-25T00:42:10.390Z,20.60
2022-07-25T00:44:38.715Z,20.50
2022-07-25T00:47:07.326Z,20.50
2022-07-25T00:49:35.606Z,20.50
2022-07-25T00:52:03.922Z,20.40
2022-07-25T00:54:32.346Z,20.40
2022-07-25T00:57:00.668Z,20.30
2022-07-25T00:59:32.061Z,20.30
2022-07-25T01:02:03.743Z,20.30
2022-07-25T01:04:32.584Z,20.20
2022-07-25T01:07:01.876Z,20.20
2022-07-25T01:09:30.716Z,20.20
2022-07-25T01:11:59.006Z,20.20
2022-07-25T01:14:27.373Z,20.20
2022-07-25T01:16:56.992Z,20.20
2022-07-25T01:19:26.465Z,20.00
2022-07-25T01:21:56.352Z,19.90
2022-07-25T01:24:24.703Z,19.80
2022-07-25T01:26:53.032Z,19.80
2022-07-25T01:29:21.331Z,19.70
2022-07-25T01:31:49.671Z,19.70
2022-07-25T01:34:17.955Z,19.80
2022-07-25T01:36:46.348Z,19.80
2022-07-25T01:39:15.960Z,19.80
2022-07-25T01:41:44.282Z,19.60
2022-07-25T01:44:12.553Z,19.50
2022-07-25T01:46:41.024Z,19.40
2022-07-25T01:49:09.663Z,19.30
2022-07-25T01:51:38.037Z,19.30
2022-07-25T01:54:09.107Z,19.40
2022-07-25T01:56:45.951Z,19.40
2022-07-25T01:59:16.898Z,19.50
2022-07-25T02:01:45.682Z,19.50
2022-07-25T02:04:14.101Z,19.50
2022-07-25T02:06:42.519Z,19.50
2022-07-25T02:09:11.269Z,19.50
2022-07-25T02:11:41.077Z,19.50
2022-07-25T02:14:09.656Z,19.50
2022-07-25T02:16:38.153Z,19.60
2022-07-25T02:19:06.625Z,19.60
2022-07-25T02:21:35.158Z,19.70
2022-07-25T02:24:03.738Z,19.70
2022-07-25T02:26:32.314Z,19.80
2022-07-25T02:29:01.901Z,19.90
2022-07-25T02:31:30.268Z,19.90
2022-07-25T02:33:58.537Z,20.00
2022-07-25T02:36:26.963Z,20.00
2022-07-25T02:38:55.185Z,20.00
2022-07-25T02:41:23.488Z,20.00
2022-07-25T02:43:51.812Z,20.10
2022-07-25T02:46:21.536Z,20.10
2022-07-25T02:48:49.980Z,20.10
2022-07-25T02:51:18.636Z,20.00
2022-07-25T02:53:57.324Z,20.00
2022-07-25T02:56:29.812Z,20.00
2022-07-25T02:58:59.007Z,20.00
2022-07-25T03:01:28.812Z,20.00
2022-07-25T03:03:57.425Z,20.00
2022-07-25T03:06:25.742Z,19.90
2022-07-25T03:08:54.074Z,19.90
2022-07-25T03:11:22.774Z,20.00
2022-07-25T03:13:51.248Z,20.00
2022-07-25T03:16:19.565Z,20.00
2022-07-25T03:18:49.296Z,20.00
2022-07-25T03:21:17.577Z,19.90
2022-07-25T03:23:51.998Z,20.00
2022-07-25T03:26:21.014Z,19.90
2022-07-25T03:28:49.264Z,19.90
2022-07-25T03:31:17.626Z,19.80
2022-07-25T03:33:46.085Z,19.80
2022-07-25T03:36:15.763Z,19.80
2022-07-25T03:38:44.025Z,19.80
2022-07-25T03:41:13.266Z,19.70
2022-07-25T03:43:41.496Z,19.70
2022-07-25T03:46:09.912Z,19.70
2022-07-25T03:48:38.263Z,19.70
2022-07-25T03:51:07.451Z,19.70
2022-07-25T03:53:57.510Z,19.60
2022-07-25T03:56:25.789Z,19.60
2022-07-25T03:58:54.089Z,19.60
2022-07-25T04:01:22.506Z,19.60
2022-07-25T04:03:51.093Z,19.60
2022-07-25T04:06:19.758Z,19.50
2022-07-25T04:08:49.425Z,19.50
2022-07-25T04:11:17.800Z,19.50
2022-07-25T04:13:46.117Z,19.50
2022-07-25T04:16:18.333Z,19.50
2022-07-25T04:18:51.823Z,19.60
2022-07-25T04:21:20.205Z,19.60
2022-07-25T04:23:50.272Z,19.70
2022-07-25T04:26:18.821Z,19.70
2022-07-25T04:28:47.652Z,19.70
2022-07-25T04:31:16.154Z,19.80
2022-07-25T04:33:44.736Z,19.80
2022-07-25T04:36:13.055Z,19.80
2022-07-25T04:38:41.436Z,19.80
2022-07-25T04:41:11.729Z,19.80
2022-07-25T04:43:43.653Z,19.80
2022-07-25T04:46:14.851Z,19.90
2022-07-25T04:48:43.236Z,20.00
2022-07-25T04:51:14.804Z,20.00
2022-07-25T04:53:43.032Z,20.10
2022-07-25T04:56:12.805Z,20.30
2022-07-25T04:58:41.306Z,20.40
2022-07-25T05:01:09.908Z,20.70
2022-07-25T05:03:38.284Z,20.80
2022-07-25T05:06:07.178Z,21.00
2022-07-25T05:08:35.486Z,21.10
2022-07-25T05:11:03.718Z,21.20
2022-07-25T05:13:33.363Z,21.20
2022-07-25T05:16:01.791Z,21.20
2022-07-25T05:18:30.164Z,21.20
2022-07-25T05:20:58.420Z,21.30
2022-07-25T05:23:26.958Z,21.30
2022-07-25T05:25:55.232Z,21.40
2022-07-25T05:28:23.514Z,21.50
2022-07-25T05:30:53.200Z,21.70
2022-07-25T05:33:21.565Z,21.80
2022-07-25T05:35:49.809Z,21.90
2022-07-25T05:38:18.093Z,22.00
2022-07-25T05:40:46.568Z,22.10
2022-07-25T05:43:14.821Z,22.30
2022-07-25T05:45:44.174Z,22.40
2022-07-25T05:48:13.963Z,22.60
2022-07-25T05:50:42.610Z,22.80
2022-07-25T05:53:10.972Z,23.00
2022-07-25T05:55:40.085Z,23.20
2022-07-25T05:58:10.088Z,23.40
2022-07-25T06:00:39.257Z,23.50
2022-07-25T06:03:07.993Z,23.60
2022-07-25T06:05:37.699Z,23.60
2022-07-25T06:08:06.820Z,23.60
2022-07-25T06:10:35.065Z,23.70
2022-07-25T06:13:05.630Z,23.70
2022-07-25T06:15:36.351Z,23.80
2022-07-25T06:18:04.711Z,23.80
2022-07-25T06:20:33.032Z,23.80
2022-07-25T06:23:03.837Z,23.80
2022-07-25T06:25:32.145Z,23.80
2022-07-25T06:28:01.148Z,23.80
2022-07-25T06:30:29.659Z,23.70
2022-07-25T06:32:57.953Z,23.70
2022-07-25T06:35:26.470Z,23.70
2022-07-25T06:37:54.759Z,23.80
2022-07-25T06:40:24.604Z,23.90
2022-07-25T06:42:52.920Z,23.90
2022-07-25T06:45:21.654Z,23.90
2022-07-25T06:47:51.113Z,23.80
2022-07-25T06:50:21.176Z,23.80
2022-07-25T06:52:50.360Z,23.90
2022-07-25T06:55:19.011Z,24.00
2022-07-25T06:57:48.711Z,24.00
2022-07-25T07:00:17.655Z,24.00
2022-07-25T07:02:52.035Z,24.00
2022-07-25T07:05:20.569Z,24.10
2022-07-25T07:07:48.936Z,24.10
2022-07-25T07:10:18.050Z,24.10
2022-07-25T07:12:48.106Z,24.10
2022-07-25T07:15:17.226Z,24.10
2022-07-25T07:17:45.534Z,24.00
2022-07-25T07:20:14.047Z,24.10
2022-07-25T07:22:46.430Z,24.10
2022-07-25T07:25:16.617Z,24.10
2022-07-25T07:27:48.037Z,24.10
2022-07-25T07:30:20.843Z,24.10
2022-07-25T07:32:52.800Z,24.00
2022-07-25T07:35:21.102Z,24.00
2022-07-25T07:37:49.498Z,23.90
2022-07-25T07:40:18.333Z,23.90
2022-07-25T07:42:51.080Z,23.80
2022-07-25T07:45:22.248Z,23.80
2022-07-25T07:47:52.505Z,23.80
2022-07-25T07:50:23.770Z,23.80
2022-07-25T07:52:53.196Z,23.80
2022-07-25T07:55:39.557Z,23.80
2022-07-25T07:58:10.053Z,23.80
2022-07-25T08:00:40.339Z,23.80
2022-07-25T08:03:10.349Z,23.70
2022-07-25T08:05:41.811Z,23.70
2022-07-25T08:08:12.575Z,23.70
2022-07-25T08:10:43.166Z,23.70
2022-07-25T08:13:18.321Z,23.70
2022-07-25T08:15:50.505Z,23.70
2022-07-25T08:18:19.830Z,23.80
2022-07-25T08:20:49.329Z,23.80
2022-07-25T08:23:18.744Z,23.80
2022-07-25T08:25:47.955Z,23.80
2022-07-25T08:28:17.595Z,23.90
2022-07-25T08:30:46.050Z,24.10
2022-07-25T08:33:17.006Z,24.10
2022-07-25T08:35:49.369Z,24.10
2022-07-25T08:38:19.148Z,24.10
2022-07-25T08:40:47.562Z,24.20
2022-07-25T08:43:18.700Z,24.20
2022-07-25T08:45:49.318Z,24.30
2022-07-25T08:48:21.154Z,24.50
2022-07-25T08:50:50.538Z,24.80
2022-07-25T08:53:36.621Z,24.90
2022-07-25T08:56:13.307Z,25.00
2022-07-25T08:58:44.804Z,25.10
2022-07-25T09:01:13.745Z,25.30
2022-07-25T09:03:43.881Z,25.40
2022-07-25T09:06:22.129Z,25.30
2022-07-25T09:08:55.820Z,25.40
2022-07-25T09:11:32.826Z,25.40
2022-07-25T09:14:06.205Z,25.30
2022-07-25T09:16:40.489Z,25.30
2022-07-25T09:19:16.038Z,25.30
2022-07-25T09:21:46.968Z,25.30
2022-07-25T09:24:22.488Z,25.30
2022-07-25T09:26:53.685Z,25.40
2022-07-25T09:29:26.845Z,25.70
2022-07-25T09:31:57.310Z,25.90
2022-07-25T09:34:34.676Z,26.00
2022-07-25T09:37:04.753Z,26.20
2022-07-25T09:39:46.466Z,26.30
2022-07-25T09:42:25.659Z,26.30
2022-07-25T09:45:07.912Z,26.60
2022-07-25T09:47:38.831Z,26.80
2022-07-25T09:50:09.227Z,26.90
2022-07-25T09:52:39.033Z,26.90
2022-07-25T09:55:10.167Z,26.70
2022-07-25T09:57:38.979Z,26.70
2022-07-25T10:00:13.070Z,26.90
2022-07-25T10:02:51.539Z,27.20
2022-07-25T10:05:32.773Z,27.30
2022-07-25T10:08:02.066Z,27.60
2022-07-25T10:10:32.938Z,27.90
2022-07-25T10:13:11.218Z,28.00
2022-07-25T10:15:50.045Z,28.20
2022-07-25T10:18:21.152Z,28.20
2022-07-25T10:20:51.900Z,28.40
2022-07-25T10:23:28.722Z,28.60
2022-07-25T10:26:09.094Z,28.80
2022-07-25T10:28:44.736Z,28.90
2022-07-25T10:31:24.393Z,29.00
2022-07-25T10:33:55.746Z,29.00
2022-07-25T10:36:25.451Z,29.10
2022-07-25T10:38:58.282Z,29.00
2022-07-25T10:41:28.781Z,29.00
2022-07-25T10:44:00.897Z,28.90
2022-07-25T10:46:32.518Z,28.80
2022-07-25T10:49:06.845Z,28.90
2022-07-25T10:51:41.487Z,28.80
2022-07-25T10:54:18.722Z,28.70
2022-07-25T10:56:58.251Z,28.90
2022-07-25T10:59:35.049Z,28.90
2022-07-25T11:02:06.708Z,28.90
2022-07-25T11:04:35.634Z,28.90
2022-07-25T11:07:15.555Z,29.00
2022-07-25T11:09:45.521Z,29.10
2022-07-25T11:12:17.372Z,29.10
2022-07-25T11:14:47.617Z,28.90
2022-07-25T11:17:20.832Z,28.80
2022-07-25T11:19:56.771Z,28.80
2022-07-25T11:22:25.710Z,28.80
2022-07-25T11:24:54.264Z,28.60
2022-07-25T11:27:24.997Z,28.60
2022-07-25T11:29:55.071Z,28.40
2022-07-25T11:32:24.744Z,28.30
2022-07-25T11:34:55.145Z,28.30
2022-07-25T11:37:23.591Z,28.10
2022-07-25T11:39:53.020Z,28.10
2022-07-25T11:42:22.506Z,28.10
2022-07-25T11:44:52.927Z,28.20
2022-07-25T11:47:29.577Z,28.60
2022-07-25T11:50:00.124Z,28.80
2022-07-25T11:52:30.211Z,29.10
2022-07-25T11:55:01.861Z,28.90
2022-07-25T11:57:32.656Z,28.70
2022-07-25T12:00:02.767Z,28.60
2022-07-25T12:02:35.380Z,28.40
2022-07-25T12:05:07.557Z,28.30
2022-07-25T12:07:45.715Z,28.40
2022-07-25T12:10:18.034Z,28.40
2022-07-25T12:12:49.884Z,28.30
2022-07-25T12:15:22.081Z,28.20
2022-07-25T12:17:53.696Z,28.20
2022-07-25T12:20:25.360Z,28.60
2022-07-25T12:22:57.194Z,28.70
2022-07-25T12:25:30.710Z,28.50
2022-07-25T12:28:00.050Z,28.40
2022-07-25T12:30:29.997Z,28.50
2022-07-25T12:33:01.412Z,28.60
2022-07-25T12:35:30.122Z,28.70
2022-07-25T12:37:58.605Z,28.80
2022-07-25T12:40:27.208Z,28.80
2022-07-25T12:42:55.599Z,28.70
2022-07-25T12:45:23.876Z,28.60
2022-07-25T12:47:52.555Z,28.40
2022-07-25T12:50:24.839Z,28.30
2022-07-25T12:52:53.483Z,28.30
2022-07-25T12:55:22.709Z,28.40
2022-07-25T12:57:51.710Z,28.50
2022-07-25T13:00:24.163Z,28.60
2022-07-25T13:02:55.816Z,28.70
2022-07-25T13:05:26.533Z,28.70
2022-07-25T13:07:54.609Z,28.40
2022-07-25T13:10:22.914Z,28.30
2022-07-25T13:12:51.635Z,28.20
2022-07-25T13:15:22.300Z,28.10
2022-07-25T13:17:51.521Z,28.10
2022-07-25T13:20:19.878Z,28.00
2022-07-25T13:22:49.489Z,27.90
2022-07-25T13:25:18.384Z,27.80
2022-07-25T13:27:48.839Z,27.80
2022-07-25T13:30:17.263Z,27.70
2022-07-25T13:32:45.620Z,27.60
2022-07-25T13:35:19.116Z,27.60
2022-07-25T13:37:50.270Z,27.50
2022-07-25T13:40:18.532Z,27.30
2022-07-25T13:42:46.801Z,27.10
2022-07-25T13:45:15.044Z,27.00
2022-07-25T13:47:43.679Z,27.10
2022-07-25T13:50:12.105Z,27.00
2022-07-25T13:52:40.484Z,26.90
2022-07-25T13:55:12.021Z,26.80
2022-07-25T13:57:40.295Z,26.70
2022-07-25T14:00:10.656Z,26.70
2022-07-25T14:02:39.060Z,26.70
2022-07-25T14:05:07.962Z,26.60
2022-07-25T14:07:36.895Z,26.50
2022-07-25T14:10:08.445Z,26.30
2022-07-25T14:12:39.658Z,26.20
2022-07-25T14:15:09.259Z,26.10
2022-07-25T14:17:38.832Z,26.00
2022-07-25T14:20:09.184Z,26.00
2022-07-25T14:22:38.472Z,26.00
2022-07-25T14:25:07.848Z,26.00
2022-07-25T14:27:38.525Z,26.10
2022-07-25T14:30:09.079Z,26.10
2022-07-25T14:32:37.584Z,26.00
2022-07-25T14:35:07.327Z,26.00
2022-07-25T14:37:36.102Z,26.10
2022-07-25T14:40:06.068Z,26.20
2022-07-25T14:42:34.862Z,26.10
2022-07-25T14:45:05.963Z,26.20
2022-07-25T14:47:34.229Z,26.20
2022-07-25T14:50:02.680Z,26.20
2022-07-25T14:52:31.018Z,26.20
2022-07-25T14:54:59.315Z,26.20
2022-07-25T14:57:27.906Z,26.10
2022-07-25T14:59:56.232Z,26.00
2022-07-25T15:02:25.851Z,26.00
2022-07-25T15:04:54.165Z,25.90
2022-07-25T15:07:22.585Z,25.80
2022-07-25T15:09:50.987Z,25.80
2022-07-25T15:12:20.765Z,25.80
2022-07-25T15:14:49.093Z,25.80
2022-07-25T15:17:17.396Z,25.90
2022-07-25T15:19:47.117Z,25.90
2022-07-25T15:22:15.483Z,25.90
2022-07-25T15:25:17.897Z,25.90
2022-07-25T15:27:32.244Z,25.90
2022-07-25T15:30:00.793Z,25.80
2022-07-25T15:32:29.095Z,25.80
2022-07-25T15:34:59.349Z,25.80
2022-07-25T15:37:27.645Z,25.80
2022-07-25T15:39:55.942Z,25.80
2022-07-25T15:42:28.855Z,25.90
2022-07-25T15:45:22.191Z,26.00
2022-07-25T15:47:50.658Z,25.90
2022-07-25T15:50:21.413Z,26.00
2022-07-25T15:52:49.945Z,25.90
2022-07-25T15:55:18.562Z,26.00
2022-07-25T15:57:46.942Z,26.00
2022-07-25T16:00:16.078Z,25.90
2022-07-25T16:02:44.971Z,25.80
2022-07-25T16:05:13.872Z,25.80
2022-07-25T16:07:43.625Z,25.70
2022-07-25T16:10:13.156Z,25.60
2022-07-25T16:12:42.091Z,25.50
2022-07-25T16:15:11.696Z,25.40
2022-07-25T16:17:40.509Z,25.50
2022-07-25T16:20:10.641Z,25.50
2022-07-25T16:22:39.466Z,25.40
2022-07-25T16:25:10.162Z,25.40
2022-07-25T16:27:38.300Z,25.40
2022-07-25T16:30:08.279Z,25.50
2022-07-25T16:32:36.744Z,25.60
2022-07-25T16:35:05.959Z,25.60
2022-07-25T16:37:34.260Z,25.70
2022-07-25T16:40:03.156Z,25.70
2022-07-25T16:42:32.796Z,25.70
2022-07-25T16:45:01.111Z,25.70
2022-07-25T16:47:29.397Z,25.70
2022-07-25T16:49:57.811Z,25.70
2022-07-25T16:52:26.251Z,25.50
2022-07-25T16:54:55.233Z,25.50
2022-07-25T16:57:25.092Z,25.50
2022-07-25T16:59:55.076Z,25.40
2022-07-25T17:02:28.884Z,25.40
2022-07-25T17:04:58.293Z,25.30
2022-07-25T17:07:27.319Z,25.20
2022-07-25T17:09:55.703Z,25.20
2022-07-25T17:12:24.128Z,25.10
2022-07-25T17:14:53.872Z,25.10
2022-07-25T17:17:22.304Z,25.10
2022-07-25T17:19:50.765Z,25.00
2022-07-25T17:22:20.277Z,24.90
2022-07-25T17:24:48.543Z,24.80
2022-07-25T17:27:17.253Z,24.80
2022-07-25T17:29:45.505Z,24.70
2022-07-25T17:32:15.168Z,24.60
2022-07-25T17:34:43.479Z,24.60
2022-07-25T17:37:11.821Z,24.50
2022-07-25T17:39:40.173Z,24.50
2022-07-25T17:42:08.638Z,24.50
2022-07-25T17:44:37.166Z,24.40
2022-07-25T17:47:05.678Z,24.40
2022-07-25T17:49:35.584Z,24.30
2022-07-25T17:52:03.960Z,24.30
2022-07-25T17:54:32.289Z,24.30
2022-07-25T17:57:00.713Z,24.30
2022-07-25T17:59:29.151Z,24.30
2022-07-25T18:01:57.594Z,24.20
2022-07-25T18:04:26.170Z,24.20
2022-07-25T18:06:56.113Z,24.20
2022-07-25T18:09:24.511Z,24.10
2022-07-25T18:11:54.632Z,24.10
2022-07-25T18:14:23.306Z,24.10
2022-07-25T18:16:51.708Z,24.00
2022-07-25T18:19:20.115Z,23.90
2022-07-25T18:21:48.478Z,23.90
2022-07-25T18:24:18.408Z,23.80
2022-07-25T18:26:47.089Z,23.80
2022-07-25T18:29:15.477Z,23.70
2022-07-25T18:31:43.910Z,23.70
2022-07-25T18:34:12.478Z,23.60
2022-07-25T18:36:42.961Z,23.60
2022-07-25T18:39:11.332Z,23.50
2022-07-25T18:41:41.085Z,23.50
2022-07-25T18:44:09.792Z,23.50
2022-07-25T18:46:39.483Z,23.40
2022-07-25T18:49:09.540Z,23.30
2022-07-25T18:51:38.107Z,23.30
2022-07-25T18:54:08.500Z,23.30
2022-07-25T18:56:37.168Z,23.30
2022-07-25T18:59:07.700Z,23.30
2022-07-25T19:01:37.584Z,23.30
2022-07-25T19:04:06.716Z,23.20
2022-07-25T19:06:35.414Z,23.20
2022-07-25T19:09:04.690Z,23.20
2022-07-25T19:11:37.642Z,23.20
2022-07-25T19:14:11.478Z,23.10
2022-07-25T19:16:39.808Z,23.10
2022-07-25T19:19:09.583Z,23.00
2022-07-25T19:21:38.808Z,23.00
2022-07-25T19:24:08.556Z,22.90
2022-07-25T19:26:37.072Z,22.90
2022-07-25T19:29:07.467Z,22.90
2022-07-25T19:31:38.371Z,22.90
2022-07-25T19:34:07.657Z,22.90
2022-07-25T19:36:36.580Z,22.80
2022-07-25T19:39:06.726Z,22.80
2022-07-25T19:41:35.154Z,22.80
2022-07-25T19:44:03.977Z,22.80
2022-07-25T19:46:34.321Z,22.70
2022-07-25T19:49:05.487Z,22.70
2022-07-25T19:51:34.246Z,22.70
2022-07-25T19:54:04.568Z,22.70
2022-07-25T19:56:34.256Z,22.60
2022-07-25T19:59:02.859Z,22.60
2022-07-25T20:01:34.290Z,22.50
2022-07-25T20:04:05.772Z,22.50
2022-07-25T20:06:34.354Z,22.50
2022-07-25T20:09:03.066Z,22.40
2022-07-25T20:11:31.378Z,22.40
2022-07-25T20:13:59.755Z,22.40
2022-07-25T20:16:28.171Z,22.30
2022-07-25T20:18:56.641Z,22.30
2022-07-25T20:21:26.338Z,22.20
2022-07-25T20:23:54.767Z,22.20
2022-07-25T20:26:23.256Z,22.10
2022-07-25T20:28:51.745Z,22.10
2022-07-25T20:31:22.188Z,22.10
2022-07-25T20:33:50.632Z,22.00
2022-07-25T20:36:19.314Z,22.00
2022-07-25T20:38:49.133Z,22.00
2022-07-25T20:41:17.709Z,21.90
2022-07-25T20:43:46.608Z,21.90
2022-07-25T20:46:15.013Z,21.90
2022-07-25T20:48:43.390Z,21.80
2022-07-25T20:51:13.641Z,21.80
2022-07-25T20:53:42.112Z,21.80
2022-07-25T20:56:11.859Z,21.70
2022-07-25T20:58:40.218Z,21.70
2022-07-25T21:01:08.629Z,21.70
2022-07-25T21:03:37.267Z,21.70
2022-07-25T21:06:06.048Z,21.60
2022-07-25T21:08:34.454Z,21.50
2022-07-25T21:11:02.865Z,21.50
2022-07-25T21:13:33.244Z,21.50
2022-07-25T21:16:01.597Z,21.50
2022-07-25T21:18:29.899Z,21.40
2022-07-25T21:20:58.543Z,21.30
2022-07-25T21:23:27.410Z,21.30
2022-07-25T21:25:55.739Z,21.20
2022-07-25T21:28:24.101Z,21.10
2022-07-25T21:30:55.749Z,21.00
2022-07-25T21:33:24.121Z,20.90
2022-07-25T21:35:52.957Z,20.90
2022-07-25T21:38:26.541Z,20.80
2022-07-25T21:40:56.776Z,20.80
2022-07-25T21:43:25.384Z,20.70
2022-07-25T21:45:55.138Z,20.60
2022-07-25T21:48:44.070Z,20.60
2022-07-25T21:51:18.755Z,20.60
2022-07-25T21:53:48.636Z,20.50
2022-07-25T21:56:17.440Z,20.40
2022-07-25T21:58:45.902Z,20.50
2022-07-25T22:01:15.800Z,20.30
2022-07-25T22:03:44.632Z,20.30
2022-07-25T22:06:13.152Z,20.30
2022-07-25T22:08:41.408Z,20.30
2022-07-25T22:11:34.688Z,20.20
2022-07-25T22:13:58.762Z,20.20
2022-07-25T22:16:28.650Z,20.20
2022-07-25T22:18:57.419Z,20.20
2022-07-25T22:21:26.012Z,20.20
2022-07-25T22:23:54.347Z,20.20
2022-07-25T22:26:22.937Z,20.20
2022-07-25T22:28:51.325Z,20.20
2022-07-25T22:31:19.648Z,20.20
2022-07-25T22:33:49.295Z,20.20
2022-07-25T22:36:17.647Z,20.20
2022-07-25T22:38:46.083Z,20.20
2022-07-25T22:41:14.485Z,20.20
2022-07-25T22:43:57.345Z,20.20
2022-07-25T22:46:27.295Z,20.10
2022-07-25T22:48:57.427Z,20.00
2022-07-25T22:51:26.768Z,20.00
2022-07-25T22:53:55.266Z,20.00
2022-07-25T22:56:24.171Z,19.90
2022-07-25T22:58:52.563Z,19.90
2022-07-25T23:01:22.410Z,19.80
2022-07-25T23:03:51.435Z,19.80
2022-07-25T23:06:22.235Z,19.80
2022-07-25T23:08:51.054Z,19.70
2022-07-25T23:11:19.486Z,19.60
2022-07-25T23:13:47.771Z,19.50
2022-07-25T23:16:16.283Z,19.50
2022-07-25T23:18:44.792Z,19.40
2022-07-25T23:21:13.555Z,19.30
2022-07-25T23:23:43.203Z,19.30
2022-07-25T23:26:11.778Z,19.20
2022-07-25T23:28:40.054Z,19.20
2022-07-25T23:31:08.577Z,19.20
2022-07-25T23:33:37.268Z,19.10
2022-07-25T23:36:06.601Z,19.10
2022-07-25T23:38:34.926Z,19.00
2022-07-25T23:41:04.661Z,19.10
2022-07-25T23:43:57.602Z,19.00
2022-07-25T23:46:25.207Z,19.00
2022-07-25T23:48:56.459Z,18.90
2022-07-25T23:51:24.857Z,18.90
2022-07-25T23:53:53.121Z,18.90
2022-07-25T23:56:22.835Z,18.80
2022-07-25T23:58:51.537Z,18.80
